Time;durP1;ratioP1;P1;durP2;ratioP2;P2;SDS_P1;SDS_P2;PMS_P1;PMS_P2;Temp;Humidity;BMP_temperature;BMP_pressure;BME280_temperature;BME280_humidity;BME280_pressure;Samples;Min_cycle;Max_cycle;Signal;HPM_P1;HPM_P2
2023/06/17 00:01:39;;;;;;;10.45;5.97;;;;;;;;;;5019837;28;20135;-71
2023/06/17 00:04:04;;;;;;;9.40;5.80;;;;;;;;;;5025393;28;20764;-71
2023/06/17 00:06:29;;;;;;;8.73;5.43;;;;;;;;;;5027301;28;20037;-71
2023/06/17 00:08:54;;;;;;;8.95;5.68;;;;;;;;;;5021341;28;20021;-71
2023/06/17 00:11:20;;;;;;;8.75;5.25;;;;;;;;;;5020384;28;20048;-71
2023/06/17 00:13:46;;;;;;;5.85;4.72;;;;;;;;;;5021145;28;20052;-71
2023/06/17 00:16:12;;;;;;;8.18;4.68;;;;;;;;;;5027398;28;20033;-71
2023/06/17 00:18:39;;;;;;;9.00;5.60;;;;;;;;;;5027652;28;20045;-71
2023/06/17 00:21:04;;;;;;;7.70;5.10;;;;;;;;;;5028379;28;20104;-71
2023/06/17 00:23:30;;;;;;;13.32;6.05;;;;;;;;;;5028231;28;20175;-71
2023/06/17 00:25:56;;;;;;;9.35;5.50;;;;;;;;;;5027560;28;20620;-71
2023/06/17 00:28:21;;;;;;;10.32;5.35;;;;;;;;;;5028271;28;20444;-71
2023/06/17 00:30:47;;;;;;;8.88;5.50;;;;;;;;;;5027771;28;20029;-71
2023/06/17 00:33:13;;;;;;;6.25;5.25;;;;;;;;;;5030012;28;20041;-71
2023/06/17 00:35:38;;;;;;;10.35;5.32;;;;;;;;;;5036293;28;20040;-71
2023/06/17 00:38:04;;;;;;;11.30;5.32;;;;;;;;;;5036339;28;20044;-71
2023/06/17 00:40:29;;;;;;;8.43;5.70;;;;;;;;;;5028498;28;20036;-71
2023/06/17 00:42:54;;;;;;;11.40;6.18;;;;;;;;;;5027647;28;20574;-71
2023/06/17 00:45:20;;;;;;;9.10;5.25;;;;;;;;;;5026885;28;20564;-71
2023/06/17 00:47:46;;;;;;;9.80;5.93;;;;;;;;;;5028376;28;20021;-71
2023/06/17 00:50:14;;;;;;;10.07;5.60;;;;;;;;;;5027030;28;20521;-71
2023/06/17 00:52:42;;;;;;;8.00;5.75;;;;;;;;;;5026732;28;20048;-71
2023/06/17 00:55:08;;;;;;;9.75;5.20;;;;;;;;;;5027845;28;20033;-71
2023/06/17 00:57:35;;;;;;;8.13;5.72;;;;;;;;;;5026872;28;20041;-71
2023/06/17 01:00:01;;;;;;;7.32;5.07;;;;;;;;;;5026345;28;20025;-71
2023/06/17 01:02:28;;;;;;;7.68;5.43;;;;;;;;;;5024920;28;20045;-71
2023/06/17 01:04:53;;;;;;;7.75;5.47;;;;;;;;;;5026737;28;20072;-71
2023/06/17 01:07:21;;;;;;;10.57;5.80;;;;;;;;;;5026858;28;20076;-71
2023/06/17 01:09:52;;;;;;;9.70;5.60;;;;;;;;;;5027104;28;20564;-71
2023/06/17 01:12:18;;;;;;;7.63;5.60;;;;;;;;;;5026340;28;20503;-71
2023/06/17 01:14:45;;;;;;;7.72;5.30;;;;;;;;;;5027347;28;20125;-71
2023/06/17 01:17:12;;;;;;;9.60;5.30;;;;;;;;;;5027033;28;20072;-71
2023/06/17 01:19:39;;;;;;;7.68;5.57;;;;;;;;;;5026214;28;20124;-71
2023/06/17 01:22:07;;;;;;;10.68;5.43;;;;;;;;;;5026716;28;20080;-71
2023/06/17 01:24:33;;;;;;;11.02;5.20;;;;;;;;;;5026755;28;20426;-71
2023/06/17 01:27:00;;;;;;;6.60;5.07;;;;;;;;;;5025395;28;20350;-71
2023/06/17 01:29:32;;;;;;;8.02;5.15;;;;;;;;;;5024604;28;20591;-71
2023/06/17 01:32:00;;;;;;;9.32;5.35;;;;;;;;;;5026425;28;20037;-71
2023/06/17 01:34:50;;;;;;;8.50;5.30;;;;;;;;;;5028319;28;20056;-71
2023/06/17 01:37:23;;;;;;;11.00;5.80;;;;;;;;;;5022749;28;20033;-71
2023/06/17 01:39:51;;;;;;;8.70;5.45;;;;;;;;;;5026060;28;20026;-71
2023/06/17 01:42:27;;;;;;;7.75;5.20;;;;;;;;;;5026243;28;20061;-71
2023/06/17 01:44:54;;;;;;;8.05;5.25;;;;;;;;;;5025648;28;20041;-71
2023/06/17 01:47:20;;;;;;;7.47;5.30;;;;;;;;;;5027325;28;20099;-71
2023/06/17 01:49:46;;;;;;;9.98;6.03;;;;;;;;;;5021744;28;20041;-71
2023/06/17 01:52:11;;;;;;;10.95;5.47;;;;;;;;;;5026280;28;20029;-71
2023/06/17 01:54:37;;;;;;;8.57;5.80;;;;;;;;;;5024633;28;20029;-71
2023/06/17 01:57:03;;;;;;;8.30;5.60;;;;;;;;;;5026550;28;20071;-71
2023/06/17 01:59:28;;;;;;;7.50;5.20;;;;;;;;;;5029577;28;20144;-71
2023/06/17 02:01:54;;;;;;;7.95;5.30;;;;;;;;;;5032726;28;20041;-71
2023/06/17 02:04:19;;;;;;;8.63;5.13;;;;;;;;;;5032183;28;20045;-71
2023/06/17 02:06:45;;;;;;;6.53;4.93;;;;;;;;;;5024501;28;20029;-71
2023/06/17 02:09:11;;;;;;;8.45;5.43;;;;;;;;;;5025403;28;20495;-71
2023/06/17 02:11:36;;;;;;;9.80;5.40;;;;;;;;;;5025354;28;20422;-71
2023/06/17 02:14:01;;;;;;;9.90;5.72;;;;;;;;;;5025832;28;20561;-71
2023/06/17 02:16:27;;;;;;;7.22;5.32;;;;;;;;;;5025400;28;20033;-71
2023/06/17 02:18:53;;;;;;;8.25;5.82;;;;;;;;;;5025492;28;20084;-71
2023/06/17 02:21:18;;;;;;;9.75;5.68;;;;;;;;;;5025706;28;20029;-71
2023/06/17 02:23:48;;;;;;;8.70;5.70;;;;;;;;;;5023962;28;20021;-71
2023/06/17 02:26:15;;;;;;;10.30;5.50;;;;;;;;;;5024354;28;20041;-71
2023/06/17 02:28:42;;;;;;;8.02;5.28;;;;;;;;;;5025223;28;20505;-71
2023/06/17 02:31:08;;;;;;;8.52;6.10;;;;;;;;;;5023984;28;20037;-71
2023/06/17 02:33:34;;;;;;;6.85;5.22;;;;;;;;;;5025379;28;20030;-71
2023/06/17 02:35:59;;;;;;;8.07;5.30;;;;;;;;;;5025294;28;20028;-71
2023/06/17 02:38:25;;;;;;;8.38;5.70;;;;;;;;;;5024722;28;20088;-71
2023/06/17 02:40:50;;;;;;;11.30;5.78;;;;;;;;;;5025254;28;20041;-71
2023/06/17 02:43:16;;;;;;;9.27;5.70;;;;;;;;;;5023785;28;20033;-71
2023/06/17 02:45:41;;;;;;;9.38;5.50;;;;;;;;;;5025204;28;20037;-71
2023/06/17 02:48:06;;;;;;;8.27;5.60;;;;;;;;;;5025058;28;20078;-71
2023/06/17 02:50:32;;;;;;;7.07;5.20;;;;;;;;;;5022669;28;20037;-71
2023/06/17 02:52:57;;;;;;;6.82;4.95;;;;;;;;;;5024890;28;20808;-71
2023/06/17 02:55:25;;;;;;;9.45;5.47;;;;;;;;;;5025151;28;20030;-71
2023/06/17 02:57:50;;;;;;;8.95;5.72;;;;;;;;;;5024284;28;20083;-71
2023/06/17 03:00:16;;;;;;;8.75;5.70;;;;;;;;;;5024828;28;20026;-71
2023/06/17 03:02:42;;;;;;;8.10;5.80;;;;;;;;;;5025518;28;20013;-71
2023/06/17 03:05:07;;;;;;;9.02;5.57;;;;;;;;;;5021630;28;20634;-71
2023/06/17 03:07:36;;;;;;;7.90;5.93;;;;;;;;;;5024954;28;20633;-71
2023/06/17 03:10:02;;;;;;;7.40;5.50;;;;;;;;;;5024894;28;20554;-71
2023/06/17 03:12:28;;;;;;;9.25;5.90;;;;;;;;;;5017532;28;20026;-71
2023/06/17 03:14:53;;;;;;;10.25;5.60;;;;;;;;;;5025330;28;20037;-71
2023/06/17 03:17:18;;;;;;;11.45;5.80;;;;;;;;;;5024685;28;20037;-71
2023/06/17 03:19:46;;;;;;;9.00;5.57;;;;;;;;;;5025459;28;20038;-71
2023/06/17 03:22:11;;;;;;;8.15;5.28;;;;;;;;;;5024908;28;20580;-71
2023/06/17 03:24:36;;;;;;;13.25;6.10;;;;;;;;;;5025914;28;20029;-71
2023/06/17 03:27:01;;;;;;;9.65;6.00;;;;;;;;;;5029020;28;20017;-71
2023/06/17 03:29:27;;;;;;;8.40;5.60;;;;;;;;;;5035589;28;20033;-71
2023/06/17 03:31:56;;;;;;;8.68;5.45;;;;;;;;;;5029768;28;20044;-71
2023/06/17 03:34:22;;;;;;;9.20;5.90;;;;;;;;;;5025839;28;20110;-71
2023/06/17 03:36:48;;;;;;;8.82;6.03;;;;;;;;;;5024321;28;20495;-71
2023/06/17 03:39:13;;;;;;;8.60;5.70;;;;;;;;;;5025140;28;20510;-71
2023/06/17 03:41:39;;;;;;;8.38;6.00;;;;;;;;;;5022381;28;20116;-71
2023/06/17 03:44:04;;;;;;;9.88;5.10;;;;;;;;;;5024526;28;20534;-71
2023/06/17 03:46:29;;;;;;;11.50;5.75;;;;;;;;;;5024608;28;20041;-71
2023/06/17 03:48:55;;;;;;;11.18;5.55;;;;;;;;;;5024656;28;20036;-71
2023/06/17 03:51:20;;;;;;;9.05;6.00;;;;;;;;;;5024407;28;20030;-71
2023/06/17 03:53:46;;;;;;;9.65;6.13;;;;;;;;;;5025082;28;20025;-72
2023/06/17 03:56:11;;;;;;;9.68;6.05;;;;;;;;;;5024413;28;20056;-71
2023/06/17 03:58:36;;;;;;;9.50;5.97;;;;;;;;;;5024817;28;20045;-71
2023/06/17 04:01:02;;;;;;;9.25;5.70;;;;;;;;;;5024023;28;20033;-71
2023/06/17 04:03:27;;;;;;;9.68;6.00;;;;;;;;;;5024369;28;20092;-71
2023/06/17 04:05:52;;;;;;;9.55;5.63;;;;;;;;;;5022006;28;20022;-71
2023/06/17 04:08:18;;;;;;;9.15;5.55;;;;;;;;;;5012639;28;20033;-72
2023/06/17 04:10:44;;;;;;;8.07;5.60;;;;;;;;;;5023822;28;20128;-71
2023/06/17 04:13:10;;;;;;;8.50;5.55;;;;;;;;;;5015077;28;20117;-71
2023/06/17 04:15:35;;;;;;;7.72;5.43;;;;;;;;;;5018612;28;20108;-71
2023/06/17 04:18:02;;;;;;;10.25;6.30;;;;;;;;;;5027988;28;20021;-71
2023/06/17 04:20:28;;;;;;;10.05;5.70;;;;;;;;;;5027450;28;20030;-71
2023/06/17 04:22:53;;;;;;;12.55;6.10;;;;;;;;;;5027327;28;20033;-72
2023/06/17 04:25:20;;;;;;;12.70;6.32;;;;;;;;;;5027936;28;20025;-71
2023/06/17 04:27:48;;;;;;;14.07;6.35;;;;;;;;;;5021379;28;20034;-71
2023/06/17 04:30:15;;;;;;;10.45;5.95;;;;;;;;;;5025005;28;20057;-71
2023/06/17 04:32:42;;;;;;;10.13;6.03;;;;;;;;;;5028215;28;20546;-72
2023/06/17 04:35:09;;;;;;;8.52;5.72;;;;;;;;;;5027146;28;20666;-72
2023/06/17 04:37:36;;;;;;;9.23;5.82;;;;;;;;;;5027391;28;20053;-72
2023/06/17 04:40:07;;;;;;;9.70;6.18;;;;;;;;;;5027489;28;20507;-72
2023/06/17 04:42:33;;;;;;;7.97;5.72;;;;;;;;;;5027579;28;20029;-71
2023/06/17 04:44:59;;;;;;;8.63;5.97;;;;;;;;;;5027781;28;20079;-71
2023/06/17 04:47:25;;;;;;;10.02;6.28;;;;;;;;;;5027452;28;20041;-71
2023/06/17 04:49:51;;;;;;;8.70;5.95;;;;;;;;;;5024909;28;20049;-71
2023/06/17 04:52:19;;;;;;;8.43;5.57;;;;;;;;;;5021262;28;20041;-71
2023/06/17 04:54:47;;;;;;;8.95;5.85;;;;;;;;;;5032620;28;20040;-71
2023/06/17 04:57:13;;;;;;;8.85;5.68;;;;;;;;;;5037427;28;20017;-71
2023/06/17 04:59:39;;;;;;;8.50;6.28;;;;;;;;;;5025159;28;20128;-71
2023/06/17 05:02:04;;;;;;;8.23;5.80;;;;;;;;;;5026674;28;20533;-71
2023/06/17 05:04:30;;;;;;;9.98;5.93;;;;;;;;;;5026673;28;20045;-71
2023/06/17 05:06:55;;;;;;;10.13;6.07;;;;;;;;;;5027256;28;20037;-71
2023/06/17 05:09:22;;;;;;;11.00;6.15;;;;;;;;;;5026248;28;20079;-71
2023/06/17 05:11:48;;;;;;;10.90;6.45;;;;;;;;;;5027392;28;20052;-71
2023/06/17 05:14:13;;;;;;;12.40;6.30;;;;;;;;;;5013513;28;20518;-72
2023/06/17 05:16:39;;;;;;;9.88;6.00;;;;;;;;;;5026631;28;20090;-71
2023/06/17 05:19:04;;;;;;;10.40;6.15;;;;;;;;;;5026969;28;20042;-71
2023/06/17 05:21:29;;;;;;;10.20;5.93;;;;;;;;;;5026899;28;20048;-71
2023/06/17 05:23:55;;;;;;;8.55;5.85;;;;;;;;;;5023837;28;20102;-71
2023/06/17 05:26:20;;;;;;;10.55;5.80;;;;;;;;;;5023391;28;20845;-71
2023/06/17 05:28:45;;;;;;;12.70;6.13;;;;;;;;;;5025922;28;20124;-71
2023/06/17 05:31:11;;;;;;;9.90;5.70;;;;;;;;;;5026394;28;20068;-71
2023/06/17 05:33:36;;;;;;;10.23;5.65;;;;;;;;;;5026369;28;20061;-72
2023/06/17 05:36:02;;;;;;;13.50;6.25;;;;;;;;;;5027060;28;20025;-72
2023/06/17 05:38:28;;;;;;;10.23;6.50;;;;;;;;;;5016253;28;20030;-71
2023/06/17 05:40:53;;;;;;;9.13;5.70;;;;;;;;;;5024110;28;20080;-72
2023/06/17 05:43:19;;;;;;;8.80;5.80;;;;;;;;;;5026540;28;20071;-71
2023/06/17 05:45:44;;;;;;;9.70;6.03;;;;;;;;;;5026180;28;20029;-71
2023/06/17 05:48:10;;;;;;;8.95;6.55;;;;;;;;;;5026177;28;20033;-70
2023/06/17 05:50:35;;;;;;;13.73;6.25;;;;;;;;;;5026055;28;20025;-72
2023/06/17 05:53:01;;;;;;;12.65;6.70;;;;;;;;;;5020037;28;20033;-71
2023/06/17 05:55:26;;;;;;;11.98;6.68;;;;;;;;;;5019960;28;20068;-71
2023/06/17 05:57:52;;;;;;;11.10;6.70;;;;;;;;;;5015633;28;20040;-71
2023/06/17 06:00:18;;;;;;;11.60;6.97;;;;;;;;;;5013829;28;20108;-71
2023/06/17 06:02:44;;;;;;;8.73;6.18;;;;;;;;;;5022730;28;20023;-72
2023/06/17 06:05:10;;;;;;;12.75;7.03;;;;;;;;;;5026411;28;20064;-73
2023/06/17 06:07:35;;;;;;;12.00;6.38;;;;;;;;;;5025727;28;20037;-73
2023/06/17 06:10:03;;;;;;;10.43;6.63;;;;;;;;;;5026273;28;20466;-72
2023/06/17 06:12:29;;;;;;;8.85;6.57;;;;;;;;;;5021923;28;20028;-73
2023/06/17 06:14:55;;;;;;;10.30;6.30;;;;;;;;;;5016904;28;20079;-73
2023/06/17 06:17:20;;;;;;;11.20;6.55;;;;;;;;;;5026358;28;20049;-73
2023/06/17 06:19:46;;;;;;;10.95;6.50;;;;;;;;;;5028531;28;20060;-72
2023/06/17 06:22:11;;;;;;;11.23;6.63;;;;;;;;;;5034862;28;20045;-72
2023/06/17 06:24:36;;;;;;;13.52;7.90;;;;;;;;;;5033829;28;20030;-72
2023/06/17 06:27:02;;;;;;;11.05;7.15;;;;;;;;;;5023764;28;20017;-72
2023/06/17 06:29:27;;;;;;;13.15;7.50;;;;;;;;;;5020759;28;20041;-71
2023/06/17 06:31:52;;;;;;;13.75;7.70;;;;;;;;;;5020494;28;20694;-71
2023/06/17 06:34:18;;;;;;;11.65;7.82;;;;;;;;;;5024256;28;20044;-72
2023/06/17 06:36:43;;;;;;;14.68;7.15;;;;;;;;;;5018455;28;20591;-71
2023/06/17 06:39:08;;;;;;;15.25;7.18;;;;;;;;;;5024868;28;20049;-72
2023/06/17 06:41:34;;;;;;;12.15;7.72;;;;;;;;;;5024857;28;20037;-71
2023/06/17 06:43:59;;;;;;;10.68;7.72;;;;;;;;;;5024976;28;20029;-72
2023/06/17 06:46:25;;;;;;;12.35;9.15;;;;;;;;;;5025063;28;20504;-71
2023/06/17 06:48:51;;;;;;;11.55;7.65;;;;;;;;;;5024632;28;20029;-72
2023/06/17 06:51:16;;;;;;;12.52;7.43;;;;;;;;;;5024940;28;20075;-71
2023/06/17 06:53:41;;;;;;;12.98;6.90;;;;;;;;;;5024712;28;20025;-72
2023/06/17 06:56:07;;;;;;;11.10;6.90;;;;;;;;;;5023913;28;20212;-71
2023/06/17 06:58:32;;;;;;;11.02;7.57;;;;;;;;;;5023779;28;20033;-71
2023/06/17 07:00:58;;;;;;;13.15;7.60;;;;;;;;;;5025093;28;20081;-71
2023/06/17 07:03:23;;;;;;;13.00;7.03;;;;;;;;;;5026091;28;20045;-71
2023/06/17 07:05:48;;;;;;;9.77;7.22;;;;;;;;;;5027017;28;20025;-71
2023/06/17 07:08:14;;;;;;;9.13;6.65;;;;;;;;;;5025145;28;20566;-71
2023/06/17 07:10:39;;;;;;;13.00;7.00;;;;;;;;;;5024602;28;20029;-71
2023/06/17 07:13:06;;;;;;;12.48;7.18;;;;;;;;;;5016198;28;20826;-71
2023/06/17 07:15:31;;;;;;;10.60;6.97;;;;;;;;;;5020448;28;20026;-71
2023/06/17 07:17:57;;;;;;;9.05;6.60;;;;;;;;;;5025623;28;20032;-72
2023/06/17 07:20:22;;;;;;;9.07;6.97;;;;;;;;;;5024186;28;20034;-72
2023/06/17 07:22:48;;;;;;;7.53;6.43;;;;;;;;;;5025212;28;20108;-72
2023/06/17 07:25:13;;;;;;;9.55;6.43;;;;;;;;;;5023649;28;20028;-71
2023/06/17 07:27:38;;;;;;;8.25;6.35;;;;;;;;;;5024580;28;20526;-72
2023/06/17 07:30:04;;;;;;;11.80;6.45;;;;;;;;;;5024932;28;20030;-72
2023/06/17 07:32:30;;;;;;;9.68;5.72;;;;;;;;;;5024275;28;20041;-71
2023/06/17 07:34:56;;;;;;;12.07;6.45;;;;;;;;;;5024146;28;20026;-71
2023/06/17 07:37:21;;;;;;;11.40;6.50;;;;;;;;;;5024231;28;20038;-71
2023/06/17 07:39:47;;;;;;;9.82;6.28;;;;;;;;;;5021571;28;20545;-72
2023/06/17 07:42:15;;;;;;;11.80;6.75;;;;;;;;;;5025231;28;20026;-71
2023/06/17 07:44:41;;;;;;;7.68;5.95;;;;;;;;;;5021006;28;20018;-71
2023/06/17 07:47:06;;;;;;;8.82;5.68;;;;;;;;;;5030343;28;20035;-72
2023/06/17 07:49:33;;;;;;;10.65;6.25;;;;;;;;;;5027444;28;20036;-71
2023/06/17 07:51:59;;;;;;;12.18;5.93;;;;;;;;;;5025723;28;20030;-71
2023/06/17 07:54:24;;;;;;;8.60;5.65;;;;;;;;;;5026908;28;20438;-71
2023/06/17 07:56:50;;;;;;;12.23;5.80;;;;;;;;;;5028492;28;20113;-72
2023/06/17 07:59:15;;;;;;;12.60;6.70;;;;;;;;;;5018417;28;20732;-71
2023/06/17 08:01:41;;;;;;;9.30;5.80;;;;;;;;;;5021214;28;20048;-72
2023/06/17 08:04:06;;;;;;;8.40;5.53;;;;;;;;;;5027534;28;20130;-72
2023/06/17 08:06:31;;;;;;;8.15;5.72;;;;;;;;;;5022874;28;20435;-72
2023/06/17 08:08:58;;;;;;;8.73;6.18;;;;;;;;;;5027939;28;20033;-72
2023/06/17 08:11:23;;;;;;;9.40;5.80;;;;;;;;;;5028268;28;20045;-72
2023/06/17 08:13:48;;;;;;;11.43;6.10;;;;;;;;;;5024677;28;20029;-71
2023/06/17 08:16:14;;;;;;;9.55;5.85;;;;;;;;;;5023345;28;20651;-71
2023/06/17 08:18:39;;;;;;;8.77;5.78;;;;;;;;;;5027911;28;20037;-71
2023/06/17 08:21:05;;;;;;;6.07;5.20;;;;;;;;;;5027992;28;20031;-72
2023/06/17 08:23:30;;;;;;;7.55;5.75;;;;;;;;;;5028081;28;20029;-73
2023/06/17 08:25:56;;;;;;;7.28;5.57;;;;;;;;;;5025314;28;20052;-72
2023/06/17 08:28:22;;;;;;;8.50;5.80;;;;;;;;;;5027122;28;20107;-73
2023/06/17 08:30:49;;;;;;;8.98;5.65;;;;;;;;;;5026744;28;20068;-73
2023/06/17 08:33:15;;;;;;;8.88;5.72;;;;;;;;;;5025882;28;20029;-72
2023/06/17 08:35:40;;;;;;;6.93;5.20;;;;;;;;;;5027798;28;20029;-72
2023/06/17 08:38:05;;;;;;;9.13;5.90;;;;;;;;;;5026775;28;20034;-72
2023/06/17 08:40:32;;;;;;;8.20;5.57;;;;;;;;;;5029515;28;20529;-71
2023/06/17 08:43:02;;;;;;;7.00;5.63;;;;;;;;;;5017175;28;20515;-72
2023/06/17 08:45:27;;;;;;;7.07;5.47;;;;;;;;;;5019675;28;20033;-72
2023/06/17 08:47:52;;;;;;;7.88;5.85;;;;;;;;;;5022002;28;20068;-71
2023/06/17 08:50:18;;;;;;;9.35;5.70;;;;;;;;;;5017333;28;20041;-72
2023/06/17 08:52:45;;;;;;;10.77;6.35;;;;;;;;;;5025720;28;20038;-72
2023/06/17 08:55:11;;;;;;;8.23;6.00;;;;;;;;;;5026481;28;20597;-72
2023/06/17 08:57:36;;;;;;;7.00;5.72;;;;;;;;;;5026679;28;20033;-72
2023/06/17 09:00:02;;;;;;;10.05;5.80;;;;;;;;;;5026642;28;20025;-72
2023/06/17 09:02:29;;;;;;;7.72;5.88;;;;;;;;;;5024641;28;20469;-71
2023/06/17 09:04:54;;;;;;;9.82;5.35;;;;;;;;;;5028078;28;20080;-72
2023/06/17 09:07:21;;;;;;;10.48;5.68;;;;;;;;;;5024394;28;20103;-72
2023/06/17 09:09:53;;;;;;;8.70;5.95;;;;;;;;;;5026609;28;20040;-72
2023/06/17 09:12:18;;;;;;;8.90;5.72;;;;;;;;;;5030477;28;20025;-71
2023/06/17 09:14:44;;;;;;;7.43;5.55;;;;;;;;;;5036365;28;20081;-72
2023/06/17 09:17:10;;;;;;;6.80;5.57;;;;;;;;;;5032914;28;20052;-72
2023/06/17 09:19:40;;;;;;;9.02;5.45;;;;;;;;;;5027602;28;20068;-72
2023/06/17 09:22:06;;;;;;;8.90;5.50;;;;;;;;;;5026794;28;20137;-72
2023/06/17 09:24:31;;;;;;;8.43;5.60;;;;;;;;;;5026299;28;20519;-72
2023/06/17 09:26:57;;;;;;;12.75;5.47;;;;;;;;;;5026822;28;20025;-72
2023/06/17 09:29:22;;;;;;;8.45;5.28;;;;;;;;;;5026547;28;20040;-72
2023/06/17 09:31:51;;;;;;;7.07;5.88;;;;;;;;;;5026215;28;20030;-72
2023/06/17 09:34:18;;;;;;;12.13;6.95;;;;;;;;;;5017197;28;20068;-72
2023/06/17 09:36:44;;;;;;;9.38;5.38;;;;;;;;;;5020227;28;20041;-72
2023/06/17 09:39:12;;;;;;;7.68;5.20;;;;;;;;;;5024620;28;20063;-71
2023/06/17 09:41:42;;;;;;;7.40;5.50;;;;;;;;;;5013957;28;20025;-72
2023/06/17 09:44:08;;;;;;;6.55;5.50;;;;;;;;;;5028344;28;20091;-71
2023/06/17 09:46:39;;;;;;;8.23;6.05;;;;;;;;;;5032250;28;20045;-72
2023/06/17 09:49:21;;;;;;;7.05;5.53;;;;;;;;;;5015473;28;20029;-72
2023/06/17 09:51:47;;;;;;;8.40;5.20;;;;;;;;;;5025739;28;20566;-72
2023/06/17 09:54:13;;;;;;;7.43;5.57;;;;;;;;;;5032010;28;20040;-71
2023/06/17 09:56:38;;;;;;;6.47;5.43;;;;;;;;;;5023552;28;20021;-72
2023/06/17 09:59:07;;;;;;;6.15;5.40;;;;;;;;;;5018357;28;20068;-72
2023/06/17 10:01:33;;;;;;;9.25;5.47;;;;;;;;;;5012629;28;20037;-72
2023/06/17 10:04:01;;;;;;;6.78;5.68;;;;;;;;;;5026346;28;20033;-72
2023/06/17 10:06:32;;;;;;;7.20;5.05;;;;;;;;;;5012591;28;20025;-72
2023/06/17 10:08:57;;;;;;;7.45;5.13;;;;;;;;;;5026053;28;20096;-72
2023/06/17 10:11:24;;;;;;;6.15;5.05;;;;;;;;;;5025683;28;20171;-72
2023/06/17 10:13:54;;;;;;;6.18;5.15;;;;;;;;;;5024806;28;20033;-72
2023/06/17 10:16:23;;;;;;;6.40;4.80;;;;;;;;;;5025420;28;20168;-72
2023/06/17 10:18:51;;;;;;;6.40;5.05;;;;;;;;;;5024503;28;20056;-72
2023/06/17 10:21:18;;;;;;;7.22;5.22;;;;;;;;;;5025162;28;20586;-72
2023/06/17 10:23:44;;;;;;;7.28;5.38;;;;;;;;;;5026195;28;20048;-72
2023/06/17 10:26:13;;;;;;;6.15;5.45;;;;;;;;;;5025436;28;20037;-72
2023/06/17 10:28:56;;;;;;;7.32;5.35;;;;;;;;;;5025707;28;20033;-72
2023/06/17 10:31:37;;;;;;;7.28;4.90;;;;;;;;;;5026213;28;20048;-72
2023/06/17 10:34:03;;;;;;;6.90;5.05;;;;;;;;;;5029446;28;20035;-71
2023/06/17 10:36:29;;;;;;;8.80;5.28;;;;;;;;;;5024691;28;20279;-72
2023/06/17 10:38:58;;;;;;;7.70;5.22;;;;;;;;;;5028339;28;20498;-72
2023/06/17 10:41:39;;;;;;;9.52;5.32;;;;;;;;;;5032934;28;20033;-72
2023/06/17 10:44:20;;;;;;;9.38;5.57;;;;;;;;;;5032045;28;20038;-72
2023/06/17 10:46:48;;;;;;;5.65;4.78;;;;;;;;;;5024954;28;20124;-72
2023/06/17 10:49:14;;;;;;;6.22;5.38;;;;;;;;;;5022310;28;20387;-72
2023/06/17 10:51:46;;;;;;;6.93;5.47;;;;;;;;;;5024530;28;20032;-72
2023/06/17 10:54:11;;;;;;;6.28;5.68;;;;;;;;;;5024423;28;20558;-72
2023/06/17 10:56:52;;;;;;;5.75;5.07;;;;;;;;;;5027427;28;20025;-72
2023/06/17 10:59:25;;;;;;;8.00;5.60;;;;;;;;;;5027901;28;20041;-71
2023/06/17 11:01:51;;;;;;;6.40;5.38;;;;;;;;;;5024252;28;20814;-72
2023/06/17 11:04:17;;;;;;;7.30;5.75;;;;;;;;;;5019221;28;20038;-72
2023/06/17 11:06:46;;;;;;;6.80;5.70;;;;;;;;;;5013122;28;20036;-72
2023/06/17 11:09:11;;;;;;;8.05;6.03;;;;;;;;;;5027910;28;20059;-71
2023/06/17 11:11:36;;;;;;;17.55;6.10;;;;;;;;;;5015705;28;20106;-72
2023/06/17 11:14:02;;;;;;;7.97;5.70;;;;;;;;;;5021031;28;20026;-72
2023/06/17 11:16:29;;;;;;;6.25;5.30;;;;;;;;;;5019266;28;20033;-72
2023/06/17 11:18:54;;;;;;;13.75;6.20;;;;;;;;;;5023168;28;20061;-72
2023/06/17 11:21:20;;;;;;;6.78;5.55;;;;;;;;;;5023924;28;20115;-72
2023/06/17 11:23:45;;;;;;;6.97;5.63;;;;;;;;;;5024539;28;20030;-72
2023/06/17 11:26:11;;;;;;;9.60;5.40;;;;;;;;;;5026183;28;20034;-72
2023/06/17 11:28:37;;;;;;;7.90;5.35;;;;;;;;;;5028237;28;20048;-72
2023/06/17 11:31:02;;;;;;;7.45;5.05;;;;;;;;;;5027852;28;20033;-72
2023/06/17 11:33:28;;;;;;;10.23;6.18;;;;;;;;;;5029226;28;20486;-72
2023/06/17 11:35:54;;;;;;;9.27;5.38;;;;;;;;;;5021036;28;20025;-72
2023/06/17 11:38:22;;;;;;;7.53;5.38;;;;;;;;;;5027996;28;20040;-73
2023/06/17 11:40:53;;;;;;;8.77;5.55;;;;;;;;;;5028805;28;20175;-72
2023/06/17 11:43:23;;;;;;;6.43;5.63;;;;;;;;;;5028062;28;20025;-72
2023/06/17 11:45:48;;;;;;;8.38;5.15;;;;;;;;;;5013788;28;20038;-72
2023/06/17 11:48:14;;;;;;;8.63;5.88;;;;;;;;;;5028610;28;20052;-72
2023/06/17 11:50:39;;;;;;;6.72;5.45;;;;;;;;;;5027920;28;20021;-72
2023/06/17 11:53:05;;;;;;;13.77;5.68;;;;;;;;;;5028392;28;20072;-72
2023/06/17 11:55:34;;;;;;;7.32;5.68;;;;;;;;;;5028926;28;20033;-72
2023/06/17 11:58:02;;;;;;;5.80;5.25;;;;;;;;;;5019409;28;20033;-72
2023/06/17 12:00:28;;;;;;;6.22;5.43;;;;;;;;;;5030067;28;20503;-72
2023/06/17 12:02:57;;;;;;;7.75;6.05;;;;;;;;;;5031330;28;20052;-72
2023/06/17 12:05:26;;;;;;;6.40;5.18;;;;;;;;;;5018230;28;20048;-72
2023/06/17 12:07:52;;;;;;;8.52;5.43;;;;;;;;;;5034088;28;20037;-72
2023/06/17 12:10:17;;;;;;;10.20;5.50;;;;;;;;;;5035404;28;20041;-72
2023/06/17 12:12:43;;;;;;;9.20;5.50;;;;;;;;;;5016316;28;20024;-72
2023/06/17 12:15:12;;;;;;;7.43;5.65;;;;;;;;;;5026860;28;20044;-71
2023/06/17 12:17:42;;;;;;;7.45;5.32;;;;;;;;;;5013381;28;20030;-71
2023/06/17 12:20:28;;;;;;;10.82;5.85;;;;;;;;;;5024685;28;20033;-72
2023/06/17 12:22:53;;;;;;;6.05;5.20;;;;;;;;;;5027545;28;20120;-72
2023/06/17 12:25:19;;;;;;;7.80;5.70;;;;;;;;;;5024499;28;20488;-72
2023/06/17 12:27:44;;;;;;;7.78;5.10;;;;;;;;;;5027084;28;20025;-72
2023/06/17 12:30:10;;;;;;;7.53;5.20;;;;;;;;;;5027018;28;20054;-72
2023/06/17 12:32:37;;;;;;;7.63;5.35;;;;;;;;;;5026821;28;20040;-72
2023/06/17 12:35:03;;;;;;;6.47;5.18;;;;;;;;;;5026176;28;20477;-72
2023/06/17 12:37:31;;;;;;;7.03;5.70;;;;;;;;;;5025899;28;20082;-72
2023/06/17 12:39:59;;;;;;;7.05;6.10;;;;;;;;;;5027137;28;20029;-72
2023/06/17 12:42:25;;;;;;;8.25;5.63;;;;;;;;;;5026596;28;20053;-72
2023/06/17 12:44:50;;;;;;;7.07;5.47;;;;;;;;;;5026817;28;20672;-72
2023/06/17 12:47:20;;;;;;;7.93;5.20;;;;;;;;;;5026279;28;20037;-72
2023/06/17 12:49:46;;;;;;;6.47;5.60;;;;;;;;;;5024561;28;20052;-72
2023/06/17 12:52:12;;;;;;;6.75;5.55;;;;;;;;;;5026340;28;20107;-72
2023/06/17 12:54:37;;;;;;;7.70;5.53;;;;;;;;;;5026582;28;20046;-72
2023/06/17 12:57:03;;;;;;;6.28;5.30;;;;;;;;;;5021297;28;20044;-72
2023/06/17 12:59:30;;;;;;;7.00;5.82;;;;;;;;;;5025738;28;20519;-72
2023/06/17 13:01:56;;;;;;;6.07;5.35;;;;;;;;;;5025952;28;20140;-72
2023/06/17 13:04:21;;;;;;;6.80;5.47;;;;;;;;;;5024674;28;20136;-72
2023/06/17 13:06:47;;;;;;;6.13;5.53;;;;;;;;;;5024784;28;20037;-72
2023/06/17 13:09:13;;;;;;;6.65;5.07;;;;;;;;;;5012148;28;20072;-72
2023/06/17 13:11:40;;;;;;;6.47;5.63;;;;;;;;;;5020851;28;20045;-72
2023/06/17 13:14:05;;;;;;;7.13;5.40;;;;;;;;;;5026224;28;20503;-72
2023/06/17 13:16:31;;;;;;;7.90;5.65;;;;;;;;;;5026171;28;20028;-72
2023/06/17 13:18:56;;;;;;;9.18;5.63;;;;;;;;;;5025646;28;20033;-72
2023/06/17 13:21:22;;;;;;;6.32;5.13;;;;;;;;;;5024769;28;20041;-71
2023/06/17 13:23:48;;;;;;;6.85;5.68;;;;;;;;;;5025960;28;20045;-72
2023/06/17 13:26:13;;;;;;;7.22;5.80;;;;;;;;;;5022533;28;20125;-72
2023/06/17 13:28:39;;;;;;;7.15;5.43;;;;;;;;;;5026071;28;20525;-72
2023/06/17 13:31:04;;;;;;;6.75;5.50;;;;;;;;;;5026881;28;20033;-72
2023/06/17 13:33:30;;;;;;;5.97;5.15;;;;;;;;;;5027896;28;20033;-72
2023/06/17 13:35:55;;;;;;;6.18;5.07;;;;;;;;;;5035756;28;20025;-72
2023/06/17 13:38:20;;;;;;;7.15;5.72;;;;;;;;;;5029223;28;20466;-72
2023/06/17 13:40:46;;;;;;;6.10;5.40;;;;;;;;;;5024864;28;20113;-72
2023/06/17 13:43:11;;;;;;;5.90;5.40;;;;;;;;;;5018825;28;20017;-72
2023/06/17 13:45:37;;;;;;;6.53;5.03;;;;;;;;;;5021317;28;20458;-72
2023/06/17 13:48:02;;;;;;;6.68;5.45;;;;;;;;;;5024748;28;20103;-72
2023/06/17 13:50:28;;;;;;;6.15;5.05;;;;;;;;;;5025042;28;20030;-72
2023/06/17 13:52:53;;;;;;;8.52;5.53;;;;;;;;;;5024973;28;20033;-72
2023/06/17 13:55:19;;;;;;;7.57;5.43;;;;;;;;;;5018940;28;20100;-72
2023/06/17 13:57:45;;;;;;;5.63;5.10;;;;;;;;;;5025614;28;20033;-72
2023/06/17 14:00:10;;;;;;;7.53;5.05;;;;;;;;;;5024998;28;20064;-72
2023/06/17 14:02:36;;;;;;;6.13;5.15;;;;;;;;;;5014733;28;20045;-72
2023/06/17 14:05:03;;;;;;;5.57;5.07;;;;;;;;;;5021681;28;20120;-72
2023/06/17 14:07:28;;;;;;;6.95;5.35;;;;;;;;;;5024915;28;20033;-72
2023/06/17 14:09:53;;;;;;;5.47;4.97;;;;;;;;;;5014360;28;20087;-72
2023/06/17 14:12:20;;;;;;;7.22;5.30;;;;;;;;;;5023689;28;20041;-72
2023/06/17 14:14:46;;;;;;;10.90;5.10;;;;;;;;;;5024225;28;20037;-72
2023/06/17 14:17:11;;;;;;;6.00;4.95;;;;;;;;;;5024857;28;20037;-72
2023/06/17 14:19:37;;;;;;;6.28;5.13;;;;;;;;;;5024760;28;20037;-72
2023/06/17 14:22:06;;;;;;;6.80;5.47;;;;;;;;;;5025107;28;20029;-72
2023/06/17 14:24:35;;;;;;;5.95;5.35;;;;;;;;;;5024479;28;20060;-72
2023/06/17 14:27:25;;;;;;;6.43;5.30;;;;;;;;;;5024110;28;20037;-72
2023/06/17 14:29:50;;;;;;;6.75;5.65;;;;;;;;;;5024553;28;20061;-72
2023/06/17 14:32:16;;;;;;;7.05;5.25;;;;;;;;;;5024244;28;20192;-72
2023/06/17 14:34:41;;;;;;;8.07;5.97;;;;;;;;;;5024376;28;20068;-72
2023/06/17 14:37:07;;;;;;;5.80;5.30;;;;;;;;;;5024760;28;20108;-72